Chiloquin, Oregon
Current Conditions -  °F | °C
As of 1:53 PM on Friday 24 Oct 2014 (Local Time) from KLMT Reporting Station
Clear Clear  
Wind Chill: 62°   Ceiling: Unl
Heat Index: 62°   Visibility: 10mi
Dew Point: 41°   Wind: 22mph
Humidity: 46%   Direction: 160°SSE
Pressure: 29.93"   Gusts: NA
Location:  42.58°N, 121.87°W
Report Text: KLMT 242053Z 16019KT 10SM CLR 17/05 A2993 RMK AO2 PK WND 17026/2029 SLP114 T01670050 58016
Loading
Personal Weather Stations






























Interactive Weather Map
Tropical Storm Tracking
New forecast layout! Learn more

10-Day Weather Forecast

Advertisements
Track Severe Weather on mobile